Time;durP1;ratioP1;P1;durP2;ratioP2;P2;SDS_P1;SDS_P2;PMS_P1;PMS_P2;Temp;Humidity;BMP_temperature;BMP_pressure;BME280_temperature;BME280_humidity;BME280_pressure;Samples;Min_cycle;Max_cycle;Signal;HPM_P1;HPM_P2
2023/01/06 00:03:00;;;;;;;2.05;1.23;;;;;;;5.88;100.00;99977.91;6373446;27;20043;-82
2023/01/06 00:06:03;;;;;;;0.95;0.70;;;;;;;5.83;100.00;99992.81;6373437;27;20108;-80
2023/01/06 00:09:04;;;;;;;7.35;1.23;;;;;;;5.75;100.00;99993.13;6373358;27;20173;-81
2023/01/06 00:12:06;;;;;;;0.82;0.82;;;;;;;5.74;100.00;100001.78;6372590;27;20039;-81
2023/01/06 00:15:07;;;;;;;;;;;;;;;5.72;100.00;100005.38;6373142;27;20540;-80
2023/01/06 00:18:08;;;;;;;6.20;1.27;;;;;;;5.70;100.00;100002.00;6372922;27;19919;-82
2023/01/06 00:21:10;;;;;;;0.60;0.60;;;;;;;5.69;100.00;100008.94;6373148;27;20087;-81
2023/01/06 00:24:13;;;;;;;2.05;1.35;;;;;;;5.69;100.00;100015.88;6374158;27;20043;-82
2023/01/06 00:27:13;;;;;;;4.00;1.98;;;;;;;5.68;100.00;100027.09;6372913;27;20701;-80
2023/01/06 00:30:14;;;;;;;2.00;1.45;;;;;;;5.56;100.00;100016.38;6374141;27;20043;-80
2023/01/06 00:33:15;;;;;;;1.92;1.30;;;;;;;5.36;100.00;100026.69;6372988;27;20054;-81
2023/01/06 00:36:16;;;;;;;4.93;1.50;;;;;;;5.23;100.00;100029.75;6373914;27;20050;-80
2023/01/06 00:39:17;;;;;;;0.47;0.30;;;;;;;5.20;100.00;100027.28;6372456;27;20063;-81
2023/01/06 00:42:21;;;;;;;2.38;0.90;;;;;;;5.09;100.00;100031.19;6373372;27;20039;-80
2023/01/06 00:45:22;;;;;;;0.55;0.45;;;;;;;5.06;100.00;100034.72;6372263;27;20047;-82
2023/01/06 00:48:24;;;;;;;1.10;0.45;;;;;;;5.21;100.00;100033.31;6372507;27;20074;-82
2023/01/06 00:51:26;;;;;;;0.93;0.60;;;;;;;5.16;100.00;100030.03;6372364;27;20043;-81
2023/01/06 00:54:26;;;;;;;0.63;0.47;;;;;;;5.19;100.00;100032.53;6373509;27;20039;-81
2023/01/06 00:57:27;;;;;;;1.88;0.60;;;;;;;5.31;100.00;100052.72;6372250;27;20477;-81
2023/01/06 01:00:30;;;;;;;2.08;0.82;;;;;;;5.27;100.00;100050.31;6372068;27;20039;-81
2023/01/06 01:03:36;;;;;;;0.40;0.40;;;;;;;5.14;100.00;100068.06;6372389;27;20444;-81
2023/01/06 01:06:39;;;;;;;1.20;0.70;;;;;;;5.10;100.00;100059.56;6372027;27;20088;-80
2023/01/06 01:09:40;;;;;;;0.15;0.15;;;;;;;5.08;100.00;100073.47;6373112;27;20073;-80
2023/01/06 01:12:41;;;;;;;0.30;0.30;;;;;;;4.99;100.00;100082.41;6354459;27;20142;-80
2023/01/06 01:15:42;;;;;;;0.80;0.75;;;;;;;5.01;100.00;100089.22;6372034;27;20039;-81
2023/01/06 01:18:43;;;;;;;0.30;0.30;;;;;;;4.88;100.00;100098.34;6371090;27;20035;-81
2023/01/06 01:21:44;;;;;;;0.32;0.32;;;;;;;5.04;100.00;100090.84;6372901;27;20043;-81
2023/01/06 01:24:45;;;;;;;1.98;1.60;;;;;;;5.04;100.00;100106.34;6371077;27;20036;-81
2023/01/06 01:27:45;;;;;;;2.17;1.25;;;;;;;5.04;100.00;100107.22;6371249;27;20043;-82
2023/01/06 01:30:46;;;;;;;1.85;1.10;;;;;;;4.96;100.00;100117.00;6371430;27;20039;-82
2023/01/06 01:33:48;;;;;;;2.53;1.30;;;;;;;4.84;100.00;100118.28;6371463;27;20119;-81
2023/01/06 01:36:51;;;;;;;1.40;1.08;;;;;;;4.72;100.00;100118.72;6354030;27;20070;-81
2023/01/06 01:39:51;;;;;;;;;;;;;;;4.69;100.00;100126.56;6372018;27;20039;-81
2023/01/06 01:42:52;;;;;;;0.68;0.68;;;;;;;4.58;100.00;100116.63;6372628;27;20627;-80
2023/01/06 01:45:54;;;;;;;1.02;0.80;;;;;;;4.42;100.00;100112.88;6370714;27;20047;-81
2023/01/06 01:49:01;;;;;;;1.73;1.00;;;;;;;4.50;100.00;100125.56;6370093;27;20122;-81
2023/01/06 01:52:02;;;;;;;2.35;1.35;;;;;;;4.44;100.00;100132.59;6372402;27;20039;-80
2023/01/06 01:55:07;;;;;;;1.20;0.88;;;;;;;4.41;100.00;100116.38;6372587;27;20092;-82
2023/01/06 01:58:14;;;;;;;1.50;1.02;;;;;;;4.33;100.00;100124.38;6371360;28;20104;-81
2023/01/06 02:01:17;;;;;;;2.05;0.80;;;;;;;4.15;100.00;100114.69;6371155;27;20043;-80
2023/01/06 02:04:21;;;;;;;1.00;0.65;;;;;;;4.18;100.00;100125.75;6372314;27;21145;-81
2023/01/06 02:07:24;;;;;;;1.60;0.93;;;;;;;4.24;100.00;100120.38;6371144;28;20043;-82
2023/01/06 02:10:27;;;;;;;3.25;0.70;;;;;;;4.23;100.00;100123.00;6371022;28;20450;-80
2023/01/06 02:13:29;;;;;;;1.02;0.80;;;;;;;4.12;100.00;100115.63;6370966;28;20045;-81
2023/01/06 02:16:46;;;;;;;0.73;0.70;;;;;;;4.13;100.00;100129.38;6372026;27;20040;-80
2023/01/06 02:20:09;;;;;;;0.70;0.70;;;;;;;4.00;100.00;100134.94;6372016;27;20043;-80
2023/01/06 02:23:22;;;;;;;1.73;1.48;;;;;;;3.97;100.00;100139.34;6353508;28;20050;-81
2023/01/06 02:26:47;;;;;;;0.95;0.95;;;;;;;3.91;100.00;100144.72;6369575;28;20383;-81
2023/01/06 02:30:09;;;;;;;1.55;1.13;;;;;;;3.81;100.00;100136.44;6345492;28;20093;-82
2023/01/06 02:33:24;;;;;;;1.65;1.25;;;;;;;3.74;100.00;100137.50;6345340;28;20043;-81
2023/01/06 02:36:43;;;;;;;2.08;1.63;;;;;;;3.74;100.00;100140.94;6347121;28;20031;-82
2023/01/06 02:40:21;;;;;;;2.10;1.35;;;;;;;3.74;100.00;100150.41;6351140;28;20123;-80
2023/01/06 02:43:30;;;;;;;0.95;0.85;;;;;;;3.68;100.00;100148.88;6349801;28;20065;-80
2023/01/06 02:46:55;;;;;;;2.35;1.10;;;;;;;3.65;100.00;100145.56;6349525;28;20063;-82
2023/01/06 02:49:56;;;;;;;1.50;1.10;;;;;;;3.52;100.00;100150.22;6332089;27;20043;-80
2023/01/06 02:53:15;;;;;;;2.05;1.17;;;;;;;3.46;100.00;100158.16;6347337;28;20042;-80
2023/01/06 02:56:23;;;;;;;1.00;0.88;;;;;;;3.36;100.00;100158.44;6347571;28;20044;-81
2023/01/06 02:59:34;;;;;;;1.52;1.10;;;;;;;3.30;100.00;100161.19;6347317;28;20096;-81
2023/01/06 03:02:38;;;;;;;0.95;0.85;;;;;;;3.30;100.00;100176.69;6349574;28;20126;-81
2023/01/06 03:05:42;;;;;;;2.72;0.90;;;;;;;3.32;100.00;100174.91;6349311;28;20467;-80
2023/01/06 03:08:47;;;;;;;2.28;1.00;;;;;;;3.30;100.00;100178.41;6348582;28;20543;-80
2023/01/06 03:11:50;;;;;;;2.33;0.90;;;;;;;3.23;100.00;100180.31;6350457;28;20038;-81
2023/01/06 03:14:55;;;;;;;0.80;0.75;;;;;;;3.21;100.00;100180.38;6349259;28;20039;-80
2023/01/06 03:17:56;;;;;;;0.45;0.45;;;;;;;3.17;100.00;100183.06;6349283;28;20043;-81
2023/01/06 03:21:01;;;;;;;1.60;1.23;;;;;;;3.18;100.00;100180.44;6350436;28;20047;-81
2023/01/06 03:24:07;;;;;;;3.35;1.83;;;;;;;3.03;100.00;100202.34;6349131;28;20095;-81
2023/01/06 03:27:08;;;;;;;6.57;2.92;;;;;;;2.88;100.00;100204.50;6348923;28;20039;-81
2023/01/06 03:30:11;;;;;;;2.35;1.63;;;;;;;2.86;100.00;100207.09;6349817;28;20071;-81
2023/01/06 03:33:24;;;;;;;5.70;1.73;;;;;;;2.81;100.00;100202.09;6348182;28;20040;-81
2023/01/06 03:36:35;;;;;;;5.55;2.33;;;;;;;2.74;100.00;100213.44;6348756;28;20471;-80
2023/01/06 03:40:04;;;;;;;7.45;1.38;;;;;;;2.77;100.00;100225.41;6348613;28;20407;-81
2023/01/06 03:43:16;;;;;;;3.30;0.95;;;;;;;2.76;100.00;100232.28;6349830;28;20414;-80
2023/01/06 03:46:53;;;;;;;0.70;0.70;;;;;;;2.61;100.00;100230.09;6348293;28;20509;-79
2023/01/06 03:50:05;;;;;;;1.85;1.08;;;;;;;2.68;100.00;100243.66;6327071;28;20114;-79
2023/01/06 03:53:32;;;;;;;2.20;1.10;;;;;;;2.64;100.00;100248.06;6348294;28;20462;-79
2023/01/06 03:56:40;;;;;;;11.20;1.30;;;;;;;2.49;100.00;100254.44;6349344;28;20434;-79
2023/01/06 03:59:52;;;;;;;0.52;0.52;;;;;;;2.41;100.00;100259.78;6349430;28;20043;-79
2023/01/06 04:02:53;;;;;;;1.55;1.40;;;;;;;2.27;100.00;100273.88;6349284;28;20530;-80
2023/01/06 04:05:54;;;;;;;4.57;1.42;;;;;;;2.32;100.00;100293.47;6349283;28;20039;-79
2023/01/06 04:08:57;;;;;;;1.88;1.60;;;;;;;2.24;100.00;100285.06;6346813;28;20476;-79
2023/01/06 04:15:20;;;;;;;2.80;1.27;;;;;;;2.33;100.00;100282.28;6348839;28;20448;-79
2023/01/06 04:18:20;;;;;;;4.93;1.67;;;;;;;2.33;100.00;100291.75;6348646;28;20043;-79
2023/01/06 04:21:21;;;;;;;1.10;1.10;;;;;;;2.34;100.00;100299.44;6348809;28;20059;-80
2023/01/06 04:24:22;;;;;;;3.42;2.10;;;;;;;2.34;100.00;100296.84;6330653;28;20070;-80
2023/01/06 04:27:23;;;;;;;2.92;1.45;;;;;;;2.36;100.00;100313.13;6347322;28;20153;-79
2023/01/06 04:30:26;;;;;;;2.63;1.83;;;;;;;2.36;100.00;100309.69;6348707;28;20035;-80
2023/01/06 04:33:30;;;;;;;1.90;1.33;;;;;;;2.37;100.00;100326.84;6347256;28;20046;-79
2023/01/06 04:36:31;;;;;;;3.03;1.08;;;;;;;2.33;100.00;100325.25;6347174;28;20035;-79
2023/01/06 04:39:32;;;;;;;10.80;3.65;;;;;;;2.29;100.00;100336.50;6346881;28;20040;-80
2023/01/06 04:43:02;;;;;;;14.02;3.22;;;;;;;2.17;100.00;100330.72;6346469;28;20049;-79
2023/01/06 04:45:57;;;;;;;13.35;3.88;;;;;;;2.20;100.00;100330.66;6346155;28;20140;-80
2023/01/06 04:48:58;;;;;;;24.75;4.43;;;;;;;2.15;100.00;100331.63;6346895;28;20406;-79
2023/01/06 04:52:01;;;;;;;5.72;3.25;;;;;;;2.15;100.00;100344.50;6346792;28;20130;-79
2023/01/06 04:55:02;;;;;;;10.68;2.92;;;;;;;2.11;100.00;100351.44;6347013;28;20407;-80
2023/01/06 04:58:03;;;;;;;7.00;3.40;;;;;;;2.11;100.00;100348.03;6347808;28;20067;-80
2023/01/06 05:01:06;;;;;;;8.77;2.70;;;;;;;2.11;100.00;100353.19;6345730;28;20036;-80
2023/01/06 05:04:07;;;;;;;7.00;1.73;;;;;;;2.13;100.00;100359.97;6347662;28;20051;-79
2023/01/06 05:07:08;;;;;;;8.80;2.53;;;;;;;2.16;100.00;100357.34;6346373;28;20085;-79
2023/01/06 05:10:11;;;;;;;5.63;2.08;;;;;;;2.16;100.00;100365.06;6347651;28;20044;-79
2023/01/06 05:13:13;;;;;;;4.22;1.92;;;;;;;2.16;100.00;100365.06;6347716;28;20508;-79
2023/01/06 05:16:15;;;;;;;3.15;1.38;;;;;;;2.20;100.00;100371.84;6347745;28;20117;-79
2023/01/06 05:19:17;;;;;;;6.03;1.90;;;;;;;2.26;100.00;100382.88;6345886;28;20073;-79
2023/01/06 05:22:20;;;;;;;1.52;0.98;;;;;;;2.21;100.00;100373.53;6344781;28;20040;-79
2023/01/06 05:25:20;;;;;;;4.05;1.10;;;;;;;2.16;100.00;100380.53;6347327;28;20479;-80
2023/01/06 05:28:21;;;;;;;1.27;1.17;;;;;;;2.14;100.00;100384.84;6346067;28;20049;-79
2023/01/06 05:31:22;;;;;;;3.05;1.73;;;;;;;2.04;100.00;100385.06;6347133;28;20139;-79
2023/01/06 05:34:23;;;;;;;4.47;2.28;;;;;;;1.91;100.00;100380.16;6345946;28;20036;-79
2023/01/06 05:37:29;;;;;;;8.30;2.28;;;;;;;1.82;100.00;100372.63;6346802;28;20039;-79
2023/01/06 05:40:29;;;;;;;5.13;3.55;;;;;;;1.93;100.00;100391.28;6345174;28;20040;-79
2023/01/06 05:43:35;;;;;;;8.75;3.75;;;;;;;1.92;100.00;100405.03;6344695;28;20088;-79
2023/01/06 05:46:36;;;;;;;3.45;2.10;;;;;;;1.90;100.00;100411.94;6345999;28;20058;-79
2023/01/06 05:49:37;;;;;;;6.85;1.75;;;;;;;1.87;100.00;100417.13;6344254;28;20043;-79
2023/01/06 05:52:38;;;;;;;3.65;2.08;;;;;;;1.87;100.00;100421.44;6346318;28;20483;-79
2023/01/06 05:55:39;;;;;;;6.75;2.75;;;;;;;1.85;100.00;100426.59;6346710;28;20035;-79
2023/01/06 05:58:43;;;;;;;16.65;4.95;;;;;;;1.95;100.00;100435.00;6346742;28;20046;-79
2023/01/06 06:01:44;;;;;;;9.95;4.43;;;;;;;1.93;100.00;100432.44;6345872;28;20123;-79
2023/01/06 06:04:45;;;;;;;9.13;4.40;;;;;;;1.94;100.00;100441.03;6345579;28;20054;-79
2023/01/06 06:07:56;;;;;;;8.75;3.67;;;;;;;1.88;100.00;100436.00;6345437;28;20135;-79
2023/01/06 06:11:02;;;;;;;5.18;2.72;;;;;;;1.80;100.00;100443.88;6360461;27;20122;-79
2023/01/06 06:14:03;;;;;;;6.68;3.38;;;;;;;1.80;100.00;100456.72;6376019;27;20042;-78
2023/01/06 06:17:04;;;;;;;3.95;2.70;;;;;;;1.74;100.00;100469.72;6369154;27;20035;-79
2023/01/06 06:20:05;;;;;;;6.22;2.35;;;;;;;1.67;100.00;100473.25;6370122;27;20489;-78
2023/01/06 06:23:06;;;;;;;5.53;2.40;;;;;;;1.67;100.00;100478.38;6374306;27;20050;-78
2023/01/06 06:26:08;;;;;;;3.35;2.10;;;;;;;1.59;100.00;100481.97;6362967;27;20554;-79
2023/01/06 06:29:09;;;;;;;3.45;1.73;;;;;;;1.51;100.00;100482.97;6343032;27;20047;-78
2023/01/06 06:32:10;;;;;;;5.00;2.93;;;;;;;1.55;100.00;100494.91;6364972;27;20059;-78
2023/01/06 06:35:11;;;;;;;13.80;2.63;;;;;;;1.54;100.00;100503.47;6354977;27;20272;-78
2023/01/06 06:38:12;;;;;;;3.97;2.10;;;;;;;1.48;100.00;100501.00;6374545;27;20054;-78
2023/01/06 06:41:13;;;;;;;1.45;1.23;;;;;;;1.51;100.00;100501.81;6376214;27;20050;-78
2023/01/06 06:44:16;;;;;;;2.10;1.48;;;;;;;1.59;100.00;100517.13;6375064;27;20556;-78
2023/01/06 06:47:18;;;;;;;5.18;2.53;;;;;;;1.48;100.00;100524.16;6376206;27;20062;-78
2023/01/06 06:50:19;;;;;;;4.25;1.98;;;;;;;1.39;100.00;100523.44;6370725;27;20114;-78
2023/01/06 06:53:21;;;;;;;6.45;2.60;;;;;;;1.45;100.00;100508.78;6367310;27;20078;-78
2023/01/06 06:56:22;;;;;;;4.47;2.47;;;;;;;1.62;100.00;100527.34;6373389;27;20039;-79
2023/01/06 06:59:23;;;;;;;6.10;3.28;;;;;;;1.65;100.00;100536.75;6370852;27;20447;-78
2023/01/06 07:02:24;;;;;;;6.38;3.60;;;;;;;1.62;100.00;100527.34;6358449;27;20042;-78
2023/01/06 07:05:25;;;;;;;8.32;4.32;;;;;;;1.69;100.00;100540.97;6364890;27;20129;-78
2023/01/06 07:08:26;;;;;;;10.52;5.38;;;;;;;1.80;100.00;100554.50;6365052;27;20066;-78
2023/01/06 07:11:27;;;;;;;10.68;5.80;;;;;;;1.75;100.00;100548.56;6375647;27;20470;-80
2023/01/06 07:14:28;;;;;;;8.82;5.88;;;;;;;1.82;100.00;100547.63;6374744;27;20088;-78
2023/01/06 07:17:28;;;;;;;5.70;4.03;;;;;;;1.85;100.00;100562.97;6372686;27;20035;-80
2023/01/06 07:20:34;;;;;;;11.88;5.75;;;;;;;1.93;100.00;100573.16;6376117;27;20415;-79
2023/01/06 07:23:35;;;;;;;7.65;4.40;;;;;;;2.00;100.00;100574.75;6355371;27;20042;-79
2023/01/06 07:26:36;;;;;;;19.60;8.73;;;;;;;2.06;100.00;100574.66;6353475;27;20043;-79
2023/01/06 07:29:37;;;;;;;12.73;5.95;;;;;;;2.24;100.00;100580.34;6366363;27;20039;-80
2023/01/06 07:32:38;;;;;;;9.90;6.32;;;;;;;2.16;100.00;100565.03;6363449;27;20067;-80
2023/01/06 07:35:39;;;;;;;16.00;5.95;;;;;;;2.32;100.00;100575.91;6356410;27;20055;-80
2023/01/06 07:38:40;;;;;;;12.00;6.32;;;;;;;2.38;100.00;100584.34;6347992;28;20522;-79
2023/01/06 07:41:41;;;;;;;10.50;6.57;;;;;;;2.62;100.00;100584.78;6329041;28;20058;-80
2023/01/06 07:44:44;;;;;;;13.35;6.70;;;;;;;2.57;100.00;100582.28;6348064;28;20280;-79
2023/01/06 07:47:45;;;;;;;13.45;5.85;;;;;;;2.82;100.00;100598.09;6348449;28;20077;-79
2023/01/06 07:50:46;;;;;;;11.25;6.05;;;;;;;2.97;100.00;100612.41;6346887;27;20031;-79
2023/01/06 07:53:46;;;;;;;14.15;7.85;;;;;;;3.09;100.00;100610.44;6345485;28;20040;-80
2023/01/06 07:56:50;;;;;;;14.38;7.47;;;;;;;3.17;100.00;100605.97;6369368;27;20050;-78
2023/01/06 07:59:51;;;;;;;10.60;7.00;;;;;;;3.26;100.00;100607.50;6370619;27;20479;-79
2023/01/06 08:02:52;;;;;;;10.85;7.05;;;;;;;3.36;100.00;100601.28;6372911;27;20047;-78
2023/01/06 08:05:52;;;;;;;9.90;6.30;;;;;;;3.54;100.00;100610.28;6354927;27;20410;-80
2023/01/06 08:08:53;;;;;;;9.00;5.93;;;;;;;3.79;100.00;100610.59;6370393;27;20072;-79
2023/01/06 08:11:54;;;;;;;6.65;4.53;;;;;;;4.00;100.00;100624.72;6373215;27;20039;-80
2023/01/06 08:14:57;;;;;;;6.10;4.82;;;;;;;3.97;100.00;100628.19;6352077;27;20443;-79
2023/01/06 08:18:00;;;;;;;7.38;3.70;;;;;;;4.08;100.00;100625.38;6339768;27;20086;-80
2023/01/06 08:21:03;;;;;;;4.35;2.47;;;;;;;4.51;100.00;100641.47;6351179;27;20104;-80
2023/01/06 08:24:04;;;;;;;5.55;3.15;;;;;;;4.82;100.00;100637.19;6371620;27;20481;-79
2023/01/06 08:27:05;;;;;;;3.88;2.75;;;;;;;5.08;100.00;100632.16;6363716;27;20607;-79
2023/01/06 08:30:07;;;;;;;2.60;2.33;;;;;;;5.22;100.00;100619.66;6352938;27;20035;-79
2023/01/06 08:33:07;;;;;;;3.05;2.20;;;;;;;5.40;100.00;100615.69;6374042;27;20035;-81
2023/01/06 08:36:12;;;;;;;8.43;3.83;;;;;;;5.75;100.00;100643.06;6358158;27;20046;-80
2023/01/06 08:39:13;;;;;;;6.82;4.70;;;;;;;6.01;100.00;100649.16;6345345;28;20250;-81
2023/01/06 08:42:14;;;;;;;10.43;5.07;;;;;;;6.14;100.00;100653.06;6350626;27;20051;-81
2023/01/06 08:45:15;;;;;;;3.85;2.72;;;;;;;6.33;100.00;100655.03;6364645;27;20051;-81
2023/01/06 08:48:16;;;;;;;5.97;2.60;;;;;;;6.54;99.69;100658.63;6355888;27;20043;-81
2023/01/06 08:51:22;;;;;;;5.60;2.80;;;;;;;6.56;97.74;100667.19;6370277;27;20027;-81
2023/01/06 08:54:26;;;;;;;1.50;1.40;;;;;;;6.79;95.42;100674.19;6370299;27;20418;-81
2023/01/06 08:57:27;;;;;;;2.13;1.52;;;;;;;6.69;93.73;100665.03;6370618;27;20127;-81
2023/01/06 09:00:28;;;;;;;2.58;1.70;;;;;;;6.55;94.18;100671.56;6358633;27;20035;-81
2023/01/06 09:03:29;;;;;;;16.92;2.00;;;;;;;6.87;94.71;100674.75;6365520;27;20043;-82
2023/01/06 09:06:30;;;;;;;4.63;2.38;;;;;;;6.84;94.87;100664.50;6372000;27;20041;-82
2023/01/06 09:09:34;;;;;;;7.33;2.27;;;;;;;6.77;91.81;100674.22;6371920;27;20475;-82
2023/01/06 09:12:35;;;;;;;4.40;2.28;;;;;;;6.76;92.96;100674.31;6371684;27;20271;-81
2023/01/06 09:15:40;;;;;;;2.65;1.70;;;;;;;6.72;90.87;100678.75;6371296;27;20046;-80
2023/01/06 09:18:48;;;;;;;4.28;1.90;;;;;;;7.06;92.15;100670.59;6362748;27;20043;-82
2023/01/06 09:21:51;;;;;;;1.83;1.55;;;;;;;7.25;90.54;100672.53;6346106;28;20471;-81
2023/01/06 09:24:52;;;;;;;4.30;2.05;;;;;;;7.29;88.83;100674.09;6353618;27;20068;-82
2023/01/06 09:27:52;;;;;;;3.80;1.65;;;;;;;7.52;86.88;100662.00;6354146;27;20099;-82
2023/01/06 09:30:53;;;;;;;8.35;2.00;;;;;;;7.72;84.73;100656.88;6346666;28;20505;-81
2023/01/06 09:33:55;;;;;;;;;;;;;;;7.70;82.63;100663.00;6352089;27;20043;-82
2023/01/06 09:36:56;;;;;;;1.45;1.10;;;;;;;7.84;78.54;100645.13;6372448;27;19955;-82
2023/01/06 09:39:58;;;;;;;2.35;1.67;;;;;;;7.73;77.35;100645.56;6368215;27;20043;-83
2023/01/06 09:43:28;;;;;;;1.50;1.30;;;;;;;7.97;76.07;100655.84;6372092;27;20054;-83
2023/01/06 09:46:33;;;;;;;1.33;1.08;;;;;;;8.17;76.12;100653.28;6363836;27;20101;-83
2023/01/06 09:49:45;;;;;;;4.40;1.95;;;;;;;8.07;71.84;100651.97;6327931;28;20058;-82
2023/01/06 09:52:58;;;;;;;3.17;1.93;;;;;;;8.28;72.64;100647.66;6366160;27;20047;-82
2023/01/06 09:56:05;;;;;;;2.30;1.33;;;;;;;8.25;71.54;100640.81;6371376;28;20275;-83
2023/01/06 09:59:34;;;;;;;2.25;1.50;;;;;;;8.59;73.02;100639.44;6371235;28;20402;-83
2023/01/06 10:02:40;;;;;;;0.95;0.82;;;;;;;8.43;69.40;100638.41;6345452;28;20043;-82
2023/01/06 10:05:54;;;;;;;0.90;0.63;;;;;;;8.75;71.00;100642.22;6358189;28;20100;-83
2023/01/06 10:09:07;;;;;;;1.20;0.82;;;;;;;8.95;67.08;100640.47;6372107;27;20180;-82
2023/01/06 10:12:17;;;;;;;;;;;;;;;8.93;68.29;100642.28;6371230;28;20394;-82
2023/01/06 10:15:23;;;;;;;0.70;0.70;;;;;;;8.63;68.36;100633.19;6370943;28;19920;-82
2023/01/06 10:18:33;;;;;;;1.02;0.70;;;;;;;8.53;67.43;100637.09;6370211;28;20512;-82
2023/01/06 10:22:03;;;;;;;2.13;0.93;;;;;;;8.80;66.78;100635.03;6370987;28;20117;-82
2023/01/06 10:25:33;;;;;;;0.60;0.55;;;;;;;8.83;68.32;100640.13;6371939;27;20817;-82
2023/01/06 10:28:37;;;;;;;1.02;0.80;;;;;;;8.80;68.86;100642.84;6370918;28;20096;-81
2023/01/06 10:31:41;;;;;;;1.27;0.98;;;;;;;8.97;67.38;100647.28;6370907;28;20486;-82
2023/01/06 10:34:45;;;;;;;2.50;1.40;;;;;;;9.12;64.68;100650.97;6370420;28;20036;-82
2023/01/06 10:37:49;;;;;;;1.23;0.73;;;;;;;8.76;64.99;100635.25;6370504;28;20047;-83
2023/01/06 10:40:54;;;;;;;0.52;0.52;;;;;;;8.65;63.05;100626.16;6363185;28;20043;-82
2023/01/06 10:43:56;;;;;;;1.13;1.00;;;;;;;8.96;65.77;100631.75;6365623;28;20051;-82
2023/01/06 10:46:57;;;;;;;3.10;1.27;;;;;;;8.81;64.19;100621.13;6353567;28;20070;-83
2023/01/06 10:50:01;;;;;;;1.85;0.80;;;;;;;9.12;65.85;100630.16;6370676;28;20043;-82
2023/01/06 10:53:03;;;;;;;1.38;0.80;;;;;;;8.64;63.06;100623.59;6353522;28;20704;-83
2023/01/06 10:56:07;;;;;;;2.00;1.17;;;;;;;8.40;63.03;100612.47;6370497;27;20479;-82
2023/01/06 10:59:09;;;;;;;0.82;0.82;;;;;;;8.53;65.50;100616.28;6372547;27;20490;-82
2023/01/06 11:02:21;;;;;;;1.55;0.95;;;;;;;8.88;66.19;100616.47;6375488;27;20043;-82
2023/01/06 11:05:26;;;;;;;0.95;0.70;;;;;;;9.14;64.69;100625.72;6375222;27;20056;-82
2023/01/06 11:08:27;;;;;;;2.55;0.93;;;;;;;9.07;64.73;100614.72;6375005;27;20399;-82
2023/01/06 11:11:31;;;;;;;49.72;33.72;;;;;;;9.31;65.22;100603.22;6374980;27;20042;-82
2023/01/06 11:14:35;;;;;;;7.15;5.13;;;;;;;9.30;62.57;100606.75;6376315;27;20039;-82
2023/01/06 11:17:36;;;;;;;2.30;1.58;;;;;;;9.29;62.51;100608.53;6373574;27;20374;-82
2023/01/06 11:20:37;;;;;;;1.33;0.90;;;;;;;9.35;63.55;100621.28;6374630;27;20043;-82
2023/01/06 11:23:40;;;;;;;0.73;0.73;;;;;;;9.30;62.42;100611.97;6375037;27;20032;-82
2023/01/06 11:26:51;;;;;;;1.27;1.02;;;;;;;9.14;63.65;100598.81;6375869;27;20062;-81
2023/01/06 11:29:52;;;;;;;2.45;0.93;;;;;;;9.34;61.69;100601.34;6374667;27;20062;-82
2023/01/06 11:32:56;;;;;;;2.05;0.80;;;;;;;9.22;63.02;100596.69;6357147;27;20396;-82
2023/01/06 11:35:57;;;;;;;1.33;0.88;;;;;;;9.15;61.03;100596.16;6374862;27;20039;-82
2023/01/06 11:39:12;;;;;;;3.15;1.10;;;;;;;9.29;62.19;100600.72;6374100;27;20078;-82
2023/01/06 11:42:13;;;;;;;0.88;0.73;;;;;;;9.26;62.49;100593.88;6374440;27;20035;-82
2023/01/06 11:45:42;;;;;;;5.35;2.60;;;;;;;9.36;62.64;100593.47;6373954;27;20488;-81
2023/01/06 11:49:09;;;;;;;4.15;1.30;;;;;;;9.30;62.78;100591.97;6356783;27;20053;-81
2023/01/06 11:52:17;;;;;;;2.13;1.33;;;;;;;9.37;62.05;100590.78;6373058;27;20035;-82
2023/01/06 11:55:21;;;;;;;2.17;1.77;;;;;;;9.43;61.17;100580.06;6353656;27;20070;-82
2023/01/06 11:58:35;;;;;;;1.27;0.85;;;;;;;9.48;61.57;100572.03;6373953;27;20041;-82
2023/01/06 12:01:45;;;;;;;16.83;6.07;;;;;;;9.25;62.31;100576.56;6373846;27;20545;-82
2023/01/06 12:04:51;;;;;;;5.25;2.55;;;;;;;9.26;62.86;100573.03;6350581;27;20499;-82
2023/01/06 12:07:56;;;;;;;18.08;8.45;;;;;;;9.11;61.84;100575.53;6348240;28;20050;-83
2023/01/06 12:11:20;;;;;;;9.30;4.10;;;;;;;9.02;63.31;100582.03;6340919;27;20055;-83
2023/01/06 12:14:26;;;;;;;6.82;3.28;;;;;;;9.08;62.06;100581.75;6371535;27;20035;-81
2023/01/06 12:17:49;;;;;;;2.97;1.45;;;;;;;8.96;61.26;100582.31;6373449;27;20047;-81
2023/01/06 12:20:54;;;;;;;4.63;1.70;;;;;;;8.96;62.28;100582.31;6373635;27;20114;-81
2023/01/06 12:23:58;;;;;;;35.22;13.70;;;;;;;8.99;63.44;100589.97;6352726;27;20047;-84
2023/01/06 12:27:05;;;;;;;6.78;2.42;;;;;;;8.95;62.58;100589.25;6347689;28;20043;-84
2023/01/06 12:30:30;;;;;;;3.22;1.13;;;;;;;8.81;61.93;100574.28;6328717;27;20051;-81
2023/01/06 12:33:53;;;;;;;1.92;1.38;;;;;;;8.76;63.20;100593.63;6362342;27;20051;-83
2023/01/06 12:37:09;;;;;;;6.15;1.85;;;;;;;8.75;62.58;100602.31;6349353;27;20062;-81
2023/01/06 12:40:39;;;;;;;2.75;0.73;;;;;;;8.78;62.51;100610.00;6371158;27;20043;-81
2023/01/06 12:43:48;;;;;;;24.45;8.13;;;;;;;8.55;66.18;100596.25;6373202;27;20051;-81
2023/01/06 12:47:00;;;;;;;3.13;1.48;;;;;;;8.46;62.35;100591.44;6389902;27;20039;-83
2023/01/06 12:50:42;;;;;;;7.18;2.97;;;;;;;8.44;64.53;100598.47;6356381;27;20074;-82
2023/01/06 12:54:18;;;;;;;19.77;8.23;;;;;;;8.55;64.20;100601.44;6349072;28;20046;-84
2023/01/06 12:57:34;;;;;;;28.02;11.88;;;;;;;8.64;64.10;100610.59;6360141;27;20048;-83
2023/01/06 13:00:38;;;;;;;31.38;12.98;;;;;;;8.64;62.72;100606.22;6349148;28;20479;-83
2023/01/06 13:03:56;;;;;;;27.77;11.77;;;;;;;8.63;63.88;100614.13;6352207;27;20031;-83
2023/01/06 13:07:03;;;;;;;17.23;6.22;;;;;;;8.61;60.72;100613.34;6374886;27;20039;-83
2023/01/06 13:10:13;;;;;;;3.47;2.00;;;;;;;8.54;62.83;100606.72;6372452;27;20039;-81
2023/01/06 13:13:42;;;;;;;25.80;7.78;;;;;;;8.53;63.28;100607.63;6373655;27;20047;-80
2023/01/06 13:16:59;;;;;;;30.55;12.73;;;;;;;8.50;62.05;100599.97;6354042;27;20462;-80
2023/01/06 13:20:01;;;;;;;34.70;13.82;;;;;;;8.37;62.26;100600.47;6346230;28;20054;-82
2023/01/06 13:23:02;;;;;;;38.17;13.73;;;;;;;8.37;64.21;100603.06;6332694;27;20051;-82
2023/01/06 13:26:23;;;;;;;18.73;5.28;;;;;;;8.16;63.92;100603.97;6342138;27;20162;-80
2023/01/06 13:29:42;;;;;;;6.75;3.53;;;;;;;8.18;64.32;100615.16;6349846;27;20036;-82
2023/01/06 13:33:11;;;;;;;5.43;2.22;;;;;;;8.20;64.74;100615.94;6346284;28;20415;-82
2023/01/06 13:36:36;;;;;;;14.75;5.53;;;;;;;7.96;63.58;100613.44;6367774;27;20114;-82
2023/01/06 13:40:00;;;;;;;10.75;4.53;;;;;;;7.93;64.66;100633.50;6358144;27;20050;-80
2023/01/06 13:43:22;;;;;;;4.97;2.60;;;;;;;7.93;64.78;100636.09;6341637;27;20052;-82
2023/01/06 13:46:26;;;;;;;6.05;3.47;;;;;;;7.89;65.67;100638.00;6365073;27;20498;-82
2023/01/06 13:49:29;;;;;;;13.55;6.15;;;;;;;7.88;67.98;100641.50;6384031;27;20047;-83
2023/01/06 13:52:30;;;;;;;;;;;;;;;7.83;64.98;100640.84;6371711;27;20040;-81
2023/01/06 13:55:35;;;;;;;5.93;3.65;;;;;;;7.88;65.42;100644.09;6372642;27;19924;-82
2023/01/06 13:58:36;;;;;;;9.18;4.28;;;;;;;7.85;65.91;100637.28;6372789;27;20458;-80
2023/01/06 14:01:40;;;;;;;12.30;5.40;;;;;;;7.76;67.27;100640.25;6371573;28;20039;-82
2023/01/06 14:04:46;;;;;;;14.27;5.00;;;;;;;7.78;68.45;100647.97;6371245;28;20062;-82
2023/01/06 14:07:58;;;;;;;7.22;4.03;;;;;;;7.69;67.07;100661.34;6353733;28;20134;-80
2023/01/06 14:11:17;;;;;;;4.90;3.13;;;;;;;7.59;67.27;100647.84;6353912;28;20051;-82
2023/01/06 14:14:26;;;;;;;4.55;3.20;;;;;;;7.52;68.02;100664.59;6354939;28;20115;-82
2023/01/06 14:17:43;;;;;;;8.02;3.40;;;;;;;7.40;69.80;100660.69;6360424;27;20614;-82
2023/01/06 14:20:44;;;;;;;6.40;3.08;;;;;;;7.34;69.42;100674.75;6342562;28;20103;-82
2023/01/06 14:24:05;;;;;;;4.65;2.72;;;;;;;7.25;69.20;100678.56;6360656;28;20040;-83
2023/01/06 14:27:10;;;;;;;3.40;2.45;;;;;;;7.16;70.24;100671.09;6353726;28;20042;-81
2023/01/06 14:30:17;;;;;;;3.70;2.60;;;;;;;6.98;71.81;100675.22;6375426;27;20028;-82
2023/01/06 14:33:27;;;;;;;9.30;5.75;;;;;;;6.82;74.24;100669.72;6370761;27;20493;-80
2023/01/06 14:36:32;;;;;;;10.77;4.85;;;;;;;6.73;77.61;100664.00;6364415;27;20074;-80